createdAt,value
2017-11-21T00:00:22.970Z,4.70
2017-11-21T00:02:50.792Z,4.70
2017-11-21T00:05:18.218Z,4.70
2017-11-21T00:07:45.733Z,4.80
2017-11-21T00:10:13.159Z,4.80
2017-11-21T00:12:40.589Z,4.80
2017-11-21T00:15:08.895Z,4.70
2017-11-21T00:17:36.318Z,4.80
2017-11-21T00:20:03.746Z,4.70
2017-11-21T00:22:32.651Z,4.60
2017-11-21T00:25:00.469Z,4.60
2017-11-21T00:27:27.914Z,4.60
2017-11-21T00:29:55.596Z,4.70
2017-11-21T00:32:23.030Z,4.70
2017-11-21T00:34:50.461Z,4.60
2017-11-21T00:37:17.921Z,4.60
2017-11-21T00:39:45.355Z,4.70
2017-11-21T00:42:12.781Z,4.70
2017-11-21T00:44:40.619Z,4.70
2017-11-21T00:47:08.049Z,4.70
2017-11-21T00:49:35.481Z,4.80
2017-11-21T00:52:02.908Z,4.80
2017-11-21T00:54:30.347Z,4.80
2017-11-21T00:56:57.789Z,4.90
2017-11-21T00:59:25.230Z,4.90
2017-11-21T01:01:52.653Z,5.00
2017-11-21T01:04:20.130Z,5.00
2017-11-21T01:06:47.557Z,5.00
2017-11-21T01:09:14.994Z,5.00
2017-11-21T01:11:42.440Z,5.00
2017-11-21T01:14:09.866Z,5.00
2017-11-21T01:16:37.294Z,5.00
2017-11-21T01:19:04.726Z,5.00
2017-11-21T01:21:32.551Z,5.00
2017-11-21T01:24:00.005Z,5.00
2017-11-21T01:26:27.433Z,4.90
2017-11-21T01:28:54.864Z,4.90
2017-11-21T01:31:22.322Z,5.00
2017-11-21T01:33:49.757Z,4.90
2017-11-21T01:36:17.591Z,4.90
2017-11-21T01:38:45.226Z,4.90
2017-11-21T01:41:12.656Z,4.90
2017-11-21T01:43:40.091Z,4.90
2017-11-21T01:46:08.201Z,5.00
2017-11-21T01:48:35.635Z,5.00
2017-11-21T01:51:03.057Z,5.00
2017-11-21T01:53:30.899Z,5.00
2017-11-21T01:55:58.333Z,5.00
2017-11-21T01:58:25.764Z,5.00
2017-11-21T02:00:53.196Z,5.10
2017-11-21T02:03:21.018Z,5.00
2017-11-21T02:05:48.452Z,5.10
2017-11-21T02:08:15.881Z,5.10
2017-11-21T02:10:43.336Z,5.10
2017-11-21T02:13:10.763Z,5.00
2017-11-21T02:15:38.189Z,5.10
2017-11-21T02:18:05.645Z,5.10
2017-11-21T02:20:33.080Z,5.00
2017-11-21T02:23:00.514Z,4.90
2017-11-21T02:25:28.201Z,5.00
2017-11-21T02:27:55.633Z,5.00
2017-11-21T02:30:23.068Z,5.00
2017-11-21T02:32:50.929Z,5.00
2017-11-21T02:35:18.751Z,5.00
2017-11-21T02:37:46.182Z,5.00
2017-11-21T02:40:13.662Z,5.00
2017-11-21T02:42:41.089Z,5.00
2017-11-21T02:45:09.313Z,5.00
2017-11-21T02:47:36.745Z,5.10
2017-11-21T02:50:04.184Z,5.10
2017-11-21T02:52:31.605Z,5.10
2017-11-21T02:54:59.405Z,5.00
2017-11-21T02:57:26.837Z,4.90
2017-11-21T02:59:54.266Z,5.00
2017-11-21T03:02:22.105Z,5.00
2017-11-21T03:04:49.532Z,5.00
2017-11-21T03:07:16.971Z,5.00
2017-11-21T03:09:44.407Z,5.00
2017-11-21T03:12:11.833Z,5.10
2017-11-21T03:14:39.273Z,5.00
2017-11-21T03:17:06.729Z,5.00
2017-11-21T03:19:34.170Z,5.10
2017-11-21T03:22:13.333Z,5.10
2017-11-21T03:24:53.065Z,5.10
2017-11-21T03:27:31.641Z,5.10
2017-11-21T03:29:59.064Z,5.20
2017-11-21T03:32:26.501Z,5.10
2017-11-21T03:34:54.116Z,5.10
2017-11-21T03:37:21.544Z,5.10
2017-11-21T03:39:48.981Z,5.00
2017-11-21T03:42:17.926Z,5.10
2017-11-21T03:44:45.362Z,5.10
2017-11-21T03:47:12.798Z,5.10
2017-11-21T03:49:40.230Z,5.10
2017-11-21T03:52:08.060Z,5.20
2017-11-21T03:54:35.498Z,5.20
2017-11-21T03:57:03.274Z,5.20
2017-11-21T03:59:30.708Z,5.20
2017-11-21T04:01:58.134Z,5.20
2017-11-21T04:04:25.681Z,5.20
2017-11-21T04:06:53.509Z,5.30
2017-11-21T04:09:20.949Z,5.30
2017-11-21T04:11:48.677Z,5.30
2017-11-21T04:14:16.099Z,5.30
2017-11-21T04:16:43.526Z,5.20
2017-11-21T04:19:11.459Z,5.30
2017-11-21T04:21:38.884Z,5.30
2017-11-21T04:24:07.006Z,5.20
2017-11-21T04:26:34.442Z,5.20
2017-11-21T04:29:01.870Z,5.10
2017-11-21T04:31:29.717Z,5.20
2017-11-21T04:33:57.145Z,5.20
2017-11-21T04:36:24.585Z,5.20
2017-11-21T04:38:52.021Z,5.10
2017-11-21T04:41:19.445Z,5.10
2017-11-21T04:43:47.276Z,5.20
2017-11-21T04:46:14.733Z,5.20
2017-11-21T04:48:42.164Z,5.10
2017-11-21T04:51:09.598Z,5.10
2017-11-21T04:53:37.046Z,5.00
2017-11-21T04:56:04.473Z,5.10
2017-11-21T04:58:31.909Z,5.10
2017-11-21T05:00:59.354Z,5.00
2017-11-21T05:03:26.779Z,5.10
2017-11-21T05:05:54.216Z,5.10
2017-11-21T05:08:22.338Z,5.00
2017-11-21T05:10:49.773Z,5.00
2017-11-21T05:13:17.229Z,5.10
2017-11-21T05:15:44.655Z,5.10
2017-11-21T05:18:12.083Z,5.10
2017-11-21T05:20:39.517Z,5.10
2017-11-21T05:23:06.973Z,5.10
2017-11-21T05:25:34.401Z,5.00
2017-11-21T05:28:01.832Z,5.00
2017-11-21T05:30:29.294Z,5.00
2017-11-21T05:33:08.580Z,5.00
2017-11-21T05:35:36.033Z,5.00
2017-11-21T05:38:03.471Z,5.00
2017-11-21T05:40:31.002Z,5.00
2017-11-21T05:42:58.545Z,5.00
2017-11-21T05:45:26.383Z,4.80
2017-11-21T05:47:53.844Z,4.80
2017-11-21T05:50:21.280Z,4.80
2017-11-21T05:52:48.733Z,4.80
2017-11-21T05:55:16.160Z,4.90
2017-11-21T05:57:44.026Z,5.00
2017-11-21T06:00:11.473Z,4.90
2017-11-21T06:02:38.901Z,5.00
2017-11-21T06:05:06.364Z,5.00
2017-11-21T06:07:33.787Z,4.90
2017-11-21T06:10:01.853Z,4.90
2017-11-21T06:12:29.273Z,4.90
2017-11-21T06:14:56.741Z,5.10
2017-11-21T06:17:24.197Z,5.00
2017-11-21T06:19:51.600Z,5.10
2017-11-21T06:22:19.031Z,5.10
2017-11-21T06:24:47.157Z,5.10
2017-11-21T06:27:14.690Z,5.10
2017-11-21T06:29:42.111Z,5.10
2017-11-21T06:32:10.948Z,5.20
2017-11-21T06:34:38.381Z,5.20
2017-11-21T06:37:05.817Z,5.20
2017-11-21T06:39:33.665Z,5.10
2017-11-21T06:42:01.089Z,5.20
2017-11-21T06:44:28.532Z,5.20
2017-11-21T06:46:55.977Z,5.10
2017-11-21T06:49:23.417Z,5.20
2017-11-21T06:51:50.841Z,5.20
2017-11-21T06:54:18.666Z,5.20
2017-11-21T06:56:46.113Z,5.20
2017-11-21T06:59:13.564Z,5.10
2017-11-21T07:01:40.989Z,5.20
2017-11-21T07:04:08.425Z,5.20
2017-11-21T07:06:36.126Z,5.20
2017-11-21T07:09:03.549Z,5.20
2017-11-21T07:11:31.377Z,5.30
2017-11-21T07:13:59.332Z,5.30
2017-11-21T07:16:26.765Z,5.30
2017-11-21T07:18:54.203Z,5.30
2017-11-21T07:21:21.645Z,5.20
2017-11-21T07:23:49.467Z,5.20
2017-11-21T07:26:16.901Z,5.20
2017-11-21T07:28:44.358Z,5.30
2017-11-21T07:31:11.786Z,5.30
2017-11-21T07:33:39.213Z,5.20
2017-11-21T07:36:06.967Z,5.20
2017-11-21T07:38:34.393Z,5.20
2017-11-21T07:41:01.838Z,5.20
2017-11-21T07:43:29.930Z,5.10
2017-11-21T07:45:57.361Z,5.10
2017-11-21T07:48:24.789Z,5.10
2017-11-21T07:50:52.585Z,5.20
2017-11-21T07:53:20.836Z,5.30
2017-11-21T07:55:48.266Z,5.20
2017-11-21T07:58:16.334Z,5.30
2017-11-21T08:00:43.741Z,5.30
2017-11-21T08:03:11.501Z,5.30
2017-11-21T08:05:38.943Z,5.30
2017-11-21T08:08:06.377Z,5.30
2017-11-21T08:10:35.752Z,5.20
2017-11-21T08:13:03.181Z,5.20
2017-11-21T08:15:30.621Z,5.20
2017-11-21T08:17:58.050Z,5.20
2017-11-21T08:20:25.501Z,5.30
2017-11-21T08:22:52.930Z,5.20
2017-11-21T08:25:20.357Z,5.30
2017-11-21T08:27:48.053Z,5.30
2017-11-21T08:30:15.881Z,5.30
2017-11-21T08:32:43.314Z,5.30
2017-11-21T08:35:10.758Z,5.40
2017-11-21T08:37:38.181Z,5.40
2017-11-21T08:40:06.005Z,5.50
2017-11-21T08:42:33.609Z,5.50
2017-11-21T08:45:01.041Z,5.50
2017-11-21T08:47:28.466Z,5.50
2017-11-21T08:49:56.006Z,5.50
2017-11-21T08:52:23.437Z,5.60
2017-11-21T08:54:50.865Z,5.60
2017-11-21T08:57:18.398Z,5.60
2017-11-21T08:59:45.838Z,5.60
2017-11-21T09:02:13.262Z,5.60
2017-11-21T09:04:40.723Z,5.50
2017-11-21T09:07:08.157Z,5.50
2017-11-21T09:09:35.969Z,5.50
2017-11-21T09:12:03.430Z,5.50
2017-11-21T09:14:30.862Z,5.60
2017-11-21T09:16:58.282Z,5.50
2017-11-21T09:19:26.122Z,5.60
2017-11-21T09:21:53.539Z,5.60
2017-11-21T09:24:20.973Z,5.60
2017-11-21T09:26:48.405Z,5.60
2017-11-21T09:29:16.263Z,5.60
2017-11-21T09:31:43.685Z,5.70
2017-11-21T09:34:11.106Z,5.70
2017-11-21T09:36:38.559Z,5.70
2017-11-21T09:39:06.056Z,5.80
2017-11-21T09:41:33.488Z,5.80
2017-11-21T09:44:01.154Z,5.80
2017-11-21T09:46:29.866Z,5.70
2017-11-21T09:48:57.305Z,5.80
2017-11-21T09:51:24.757Z,5.70
2017-11-21T09:53:52.185Z,5.80
2017-11-21T09:56:19.731Z,5.90
2017-11-21T09:58:47.433Z,5.70
2017-11-21T10:01:14.869Z,5.70
2017-11-21T10:03:42.296Z,5.80
2017-11-21T10:06:10.143Z,5.80
2017-11-21T10:08:37.982Z,5.80
2017-11-21T10:11:05.418Z,5.80
2017-11-21T10:13:32.872Z,5.70
2017-11-21T10:16:00.454Z,5.80
2017-11-21T10:18:27.869Z,5.90
2017-11-21T10:20:55.321Z,5.90
2017-11-21T10:23:22.760Z,5.90
2017-11-21T10:25:50.194Z,6.00
2017-11-21T10:28:18.029Z,5.90
2017-11-21T10:30:45.462Z,5.90
2017-11-21T10:33:12.893Z,5.90
2017-11-21T10:35:40.424Z,6.00
2017-11-21T10:38:08.260Z,6.10
2017-11-21T10:40:35.690Z,6.10
2017-11-21T10:43:03.146Z,6.00
2017-11-21T10:45:30.578Z,5.90
2017-11-21T10:47:58.011Z,5.90
2017-11-21T10:50:25.942Z,5.90
2017-11-21T10:52:53.377Z,5.90
2017-11-21T10:55:20.822Z,6.00
2017-11-21T10:57:48.955Z,6.00
2017-11-21T11:00:16.779Z,6.10
2017-11-21T11:02:44.209Z,6.10
2017-11-21T11:05:11.650Z,6.10
2017-11-21T11:07:39.073Z,6.20
2017-11-21T11:10:06.902Z,6.10
2017-11-21T11:12:34.366Z,6.10
2017-11-21T11:15:01.805Z,6.20
2017-11-21T11:17:29.235Z,6.30
2017-11-21T11:19:56.674Z,6.40
2017-11-21T11:22:24.100Z,6.40
2017-11-21T11:24:51.549Z,6.50
2017-11-21T11:27:18.977Z,6.40
2017-11-21T11:29:46.407Z,6.40
2017-11-21T11:32:13.942Z,6.30
2017-11-21T11:34:41.770Z,6.30
2017-11-21T11:37:09.205Z,6.30
2017-11-21T11:39:36.653Z,6.30
2017-11-21T11:42:04.089Z,6.30
2017-11-21T11:44:31.512Z,6.20
2017-11-21T11:46:59.401Z,6.30
2017-11-21T11:49:27.217Z,6.30
2017-11-21T11:51:54.695Z,6.30
2017-11-21T11:54:22.133Z,6.40
2017-11-21T11:56:49.557Z,6.40
2017-11-21T11:59:16.997Z,6.40
2017-11-21T12:01:44.444Z,6.30
2017-11-21T12:04:11.878Z,6.40
2017-11-21T12:06:39.758Z,6.30
2017-11-21T12:09:07.190Z,6.30
2017-11-21T12:11:35.036Z,6.30
2017-11-21T12:14:02.478Z,6.40
2017-11-21T12:16:29.916Z,6.50
2017-11-21T12:18:57.357Z,6.50
2017-11-21T12:21:24.802Z,6.60
2017-11-21T12:23:52.281Z,6.60
2017-11-21T12:26:19.747Z,6.60
2017-11-21T12:28:47.175Z,6.50
2017-11-21T12:31:14.857Z,6.40
2017-11-21T12:33:42.290Z,6.50
2017-11-21T12:36:09.723Z,6.60
2017-11-21T12:38:37.567Z,6.60
2017-11-21T12:41:05.008Z,6.60
2017-11-21T12:43:32.434Z,6.50
2017-11-21T12:45:59.888Z,6.50
2017-11-21T12:48:27.314Z,6.40
2017-11-21T12:50:54.787Z,6.50
2017-11-21T12:53:22.226Z,6.50
2017-11-21T12:55:49.684Z,6.40
2017-11-21T12:58:17.163Z,6.40
2017-11-21T13:00:44.616Z,6.40
2017-11-21T13:03:12.055Z,6.40
2017-11-21T13:05:39.773Z,6.50
2017-11-21T13:08:07.215Z,6.50
2017-11-21T13:10:34.648Z,6.40
2017-11-21T13:13:02.106Z,6.40
2017-11-21T13:15:29.548Z,6.40
2017-11-21T13:17:56.974Z,6.30
2017-11-21T13:20:24.818Z,6.50
2017-11-21T13:22:52.247Z,6.50
2017-11-21T13:25:19.690Z,6.40
2017-11-21T13:27:47.145Z,6.50
2017-11-21T13:30:14.578Z,6.50
2017-11-21T13:32:42.019Z,6.50
2017-11-21T13:35:09.455Z,6.50
2017-11-21T13:37:37.301Z,6.20
2017-11-21T13:40:04.740Z,6.20
2017-11-21T13:42:32.284Z,6.20
2017-11-21T13:44:59.716Z,6.20
2017-11-21T13:47:27.148Z,6.20
2017-11-21T13:49:55.111Z,6.30
2017-11-21T13:52:22.952Z,6.20
2017-11-21T13:54:50.388Z,6.30
2017-11-21T13:57:17.853Z,6.30
2017-11-21T13:59:45.282Z,6.30
2017-11-21T14:02:12.714Z,6.30
2017-11-21T14:04:40.177Z,6.20
2017-11-21T14:07:07.614Z,6.20
2017-11-21T14:09:35.442Z,6.20
2017-11-21T14:12:02.891Z,6.20
2017-11-21T14:14:30.342Z,6.10
2017-11-21T14:16:57.757Z,6.20
2017-11-21T14:19:25.209Z,6.20
2017-11-21T14:21:52.634Z,6.20
2017-11-21T14:24:20.462Z,6.20
2017-11-21T14:26:47.920Z,6.20
2017-11-21T14:29:15.377Z,6.20
2017-11-21T14:31:42.791Z,6.10
2017-11-21T14:34:10.246Z,6.10
2017-11-21T14:36:37.671Z,6.20
2017-11-21T14:39:05.504Z,6.10
2017-11-21T14:41:33.244Z,6.10
2017-11-21T14:44:00.678Z,6.10
2017-11-21T14:46:28.117Z,6.10
2017-11-21T14:48:55.937Z,6.00
2017-11-21T14:51:23.374Z,6.00
2017-11-21T14:53:50.922Z,6.00
2017-11-21T14:56:18.350Z,6.10
2017-11-21T14:58:45.778Z,6.10
2017-11-21T15:01:13.313Z,6.10
2017-11-21T15:03:40.753Z,6.10
2017-11-21T15:06:08.182Z,6.10
2017-11-21T15:08:35.630Z,6.00
2017-11-21T15:11:03.441Z,6.10
2017-11-21T15:13:30.872Z,6.10
2017-11-21T15:15:58.317Z,6.00
2017-11-21T15:18:25.741Z,6.00
2017-11-21T15:20:53.561Z,5.90
2017-11-21T15:23:22.143Z,5.90
2017-11-21T15:25:49.568Z,6.00
2017-11-21T15:28:17.004Z,5.90
2017-11-21T15:30:44.941Z,5.90
2017-11-21T15:33:12.370Z,5.90
2017-11-21T15:35:39.800Z,5.90
2017-11-21T15:38:07.229Z,5.90
2017-11-21T15:40:35.050Z,5.90
2017-11-21T15:43:02.489Z,5.90
2017-11-21T15:45:29.919Z,5.90
2017-11-21T15:47:57.355Z,5.90
2017-11-21T15:50:25.183Z,5.80
2017-11-21T15:52:52.614Z,5.80
2017-11-21T15:55:20.213Z,5.80
2017-11-21T15:57:47.674Z,5.90
2017-11-21T16:00:17.062Z,5.90
2017-11-21T16:02:44.472Z,5.90
2017-11-21T16:05:12.130Z,5.80
2017-11-21T16:07:39.686Z,5.80
2017-11-21T16:10:07.106Z,5.80
2017-11-21T16:12:34.945Z,5.90
2017-11-21T16:15:02.372Z,5.90
2017-11-21T16:17:29.985Z,5.90
2017-11-21T16:19:58.229Z,5.80
2017-11-21T16:22:25.665Z,5.90
2017-11-21T16:24:53.102Z,5.90
2017-11-21T16:27:20.791Z,5.90
2017-11-21T16:29:48.341Z,5.90
2017-11-21T16:32:15.772Z,5.90
2017-11-21T16:34:43.256Z,5.90
2017-11-21T16:37:10.683Z,5.90
2017-11-21T16:39:38.117Z,5.80
2017-11-21T16:42:05.957Z,5.90
2017-11-21T16:44:33.411Z,5.90
2017-11-21T16:47:00.842Z,5.80
2017-11-21T16:49:28.276Z,5.80
2017-11-21T16:51:55.809Z,5.80
2017-11-21T16:54:23.338Z,5.80
2017-11-21T16:56:50.804Z,5.70
2017-11-21T16:59:18.893Z,5.70
2017-11-21T17:01:46.944Z,5.80
2017-11-21T17:04:14.377Z,5.80
2017-11-21T17:06:41.935Z,5.80
2017-11-21T17:09:09.382Z,5.80
2017-11-21T17:11:36.813Z,5.70
2017-11-21T17:14:04.286Z,5.70
2017-11-21T17:16:31.776Z,5.80
2017-11-21T17:18:59.614Z,5.80
2017-11-21T17:21:27.053Z,5.80
2017-11-21T17:23:54.510Z,5.80
2017-11-21T17:26:22.000Z,5.70
2017-11-21T17:28:49.409Z,5.80
2017-11-21T17:31:16.864Z,5.80
2017-11-21T17:33:44.303Z,5.80
2017-11-21T17:36:11.785Z,5.80
2017-11-21T17:38:39.228Z,5.90
2017-11-21T17:41:06.706Z,5.90
2017-11-21T17:43:34.142Z,5.80
2017-11-21T17:46:01.598Z,5.80
2017-11-21T17:48:29.045Z,5.80
2017-11-21T17:50:56.477Z,5.80
2017-11-21T17:53:23.922Z,5.70
2017-11-21T17:55:51.742Z,5.80
2017-11-21T17:58:19.170Z,5.80
2017-11-21T18:00:46.701Z,5.80
2017-11-21T18:03:14.236Z,5.80
2017-11-21T18:05:41.662Z,5.80
2017-11-21T18:08:09.250Z,5.80
2017-11-21T18:10:37.275Z,5.90
2017-11-21T18:13:04.702Z,5.90
2017-11-21T18:15:32.175Z,5.80
2017-11-21T18:17:59.603Z,5.80
2017-11-21T18:20:27.026Z,5.80
2017-11-21T18:22:54.689Z,5.80
2017-11-21T18:25:22.426Z,5.80
2017-11-21T18:27:50.389Z,5.80
2017-11-21T18:30:17.817Z,5.80
2017-11-21T18:32:57.578Z,5.80
2017-11-21T18:35:25.009Z,5.80
2017-11-21T18:37:52.434Z,5.80
2017-11-21T18:40:20.563Z,5.90
2017-11-21T18:42:47.981Z,5.90
2017-11-21T18:45:15.412Z,5.80
2017-11-21T18:47:43.243Z,5.90
2017-11-21T18:50:25.102Z,5.90
2017-11-21T18:52:52.559Z,5.90
2017-11-21T18:55:20.034Z,5.90
2017-11-21T18:57:47.738Z,5.90
2017-11-21T19:00:15.226Z,5.90
2017-11-21T19:02:42.681Z,5.90
2017-11-21T19:05:10.137Z,5.90
2017-11-21T19:07:37.586Z,5.90
2017-11-21T19:10:05.414Z,5.90
2017-11-21T19:12:32.858Z,5.90
2017-11-21T19:15:00.293Z,5.90
2017-11-21T19:17:27.770Z,5.90
2017-11-21T19:19:55.206Z,5.90
2017-11-21T19:22:22.637Z,5.90
2017-11-21T19:24:50.282Z,6.00
2017-11-21T19:27:17.939Z,5.90
2017-11-21T19:29:45.484Z,5.90
2017-11-21T19:32:13.313Z,5.90
2017-11-21T19:34:41.721Z,5.90
2017-11-21T19:40:12.401Z,5.90
2017-11-21T19:42:40.027Z,6.00
2017-11-21T19:45:07.858Z,6.00
2017-11-21T19:47:35.344Z,6.00
2017-11-21T19:50:02.814Z,6.00
2017-11-21T19:52:30.638Z,6.00
2017-11-21T19:54:58.081Z,6.00
2017-11-21T19:57:25.538Z,6.00
2017-11-21T19:59:53.298Z,6.00
2017-11-21T20:02:20.941Z,6.00
2017-11-21T20:04:48.388Z,6.00
2017-11-21T20:07:15.830Z,6.00
2017-11-21T20:09:43.280Z,6.00
2017-11-21T20:12:11.109Z,6.10
2017-11-21T20:14:38.555Z,6.10
2017-11-21T20:17:06.270Z,6.10
2017-11-21T20:19:33.706Z,6.00
2017-11-21T20:22:02.061Z,6.10
2017-11-21T20:24:29.502Z,6.10
2017-11-21T20:26:56.934Z,6.10
2017-11-21T20:29:24.398Z,6.10
2017-11-21T20:31:51.838Z,6.10
2017-11-21T20:34:19.282Z,6.10
2017-11-21T20:36:46.721Z,6.10
2017-11-21T20:39:14.580Z,6.10
2017-11-21T20:41:42.420Z,6.10
2017-11-21T20:44:09.853Z,6.10
2017-11-21T20:46:37.302Z,6.10
2017-11-21T20:49:04.797Z,6.10
2017-11-21T20:51:33.203Z,6.10
2017-11-21T20:54:01.191Z,6.10
2017-11-21T20:56:29.205Z,6.10
2017-11-21T20:58:56.629Z,6.10
2017-11-21T21:01:24.073Z,6.10
2017-11-21T21:03:51.524Z,6.10
2017-11-21T21:06:19.340Z,6.10
2017-11-21T21:08:47.678Z,6.10
2017-11-21T21:11:15.201Z,6.20
2017-11-21T21:13:42.903Z,6.20
2017-11-21T21:16:10.365Z,6.20
2017-11-21T21:18:38.051Z,6.20
2017-11-21T21:21:05.534Z,6.20
2017-11-21T21:23:32.964Z,6.20
2017-11-21T21:26:00.412Z,6.20
2017-11-21T21:28:28.238Z,6.20
2017-11-21T21:30:55.705Z,6.20
2017-11-21T21:33:23.175Z,6.20
2017-11-21T21:35:50.631Z,6.20
2017-11-21T21:38:18.290Z,6.20
2017-11-21T21:40:45.755Z,6.20
2017-11-21T21:43:13.590Z,6.20
2017-11-21T21:45:41.144Z,6.20
2017-11-21T21:48:08.598Z,6.20
2017-11-21T21:50:36.040Z,6.20
2017-11-21T21:53:03.490Z,6.20
2017-11-21T21:55:30.945Z,6.20
2017-11-21T21:57:58.559Z,6.20
2017-11-21T22:00:26.402Z,6.30
2017-11-21T22:02:54.174Z,6.30
2017-11-21T22:05:21.606Z,6.30
2017-11-21T22:07:49.050Z,6.30
2017-11-21T22:10:16.727Z,6.20
2017-11-21T22:12:44.166Z,6.30
2017-11-21T22:15:11.612Z,6.20
2017-11-21T22:17:39.088Z,6.30
2017-11-21T22:20:06.548Z,6.30
2017-11-21T22:22:34.072Z,6.30
2017-11-21T22:25:01.552Z,6.30
2017-11-21T22:27:28.985Z,6.30
2017-11-21T22:29:56.442Z,6.30
2017-11-21T22:32:23.894Z,6.30
2017-11-21T22:34:51.320Z,6.40
2017-11-21T22:37:19.185Z,6.40
2017-11-21T22:39:47.036Z,6.50
2017-11-21T22:42:14.456Z,6.50
2017-11-21T22:44:41.914Z,6.50
2017-11-21T22:47:09.342Z,6.50
2017-11-21T22:49:36.783Z,6.50
2017-11-21T22:52:04.324Z,6.50
2017-11-21T22:54:32.173Z,6.50
2017-11-21T22:56:59.576Z,6.60
2017-11-21T22:59:27.043Z,6.50
2017-11-21T23:01:54.489Z,6.50
2017-11-21T23:04:21.898Z,6.60
2017-11-21T23:06:49.712Z,6.60
2017-11-21T23:09:17.138Z,6.60
2017-11-21T23:11:44.921Z,6.70
2017-11-21T23:14:12.378Z,6.70
2017-11-21T23:16:39.797Z,6.80
2017-11-21T23:19:07.222Z,6.80
2017-11-21T23:21:34.648Z,6.80
2017-11-21T23:24:02.246Z,6.90
2017-11-21T23:26:29.700Z,6.90
2017-11-21T23:28:57.530Z,6.90
2017-11-21T23:31:24.941Z,6.90
2017-11-21T23:33:52.422Z,6.90
2017-11-21T23:36:19.861Z,7.00
2017-11-21T23:38:47.283Z,7.00
2017-11-21T23:41:15.117Z,7.00
2017-11-21T23:43:42.563Z,7.00
2017-11-21T23:46:09.985Z,7.00
2017-11-21T23:48:37.406Z,7.10
2017-11-21T23:51:04.829Z,7.20
2017-11-21T23:53:32.272Z,7.20
2017-11-21T23:55:59.692Z,7.20
2017-11-21T23:58:27.121Z,7.30
